Time;durP1;ratioP1;P1;durP2;ratioP2;P2;SDS_P1;SDS_P2;PMS_P1;PMS_P2;Temp;Humidity;BMP_temperature;BMP_pressure;BME280_temperature;BME280_humidity;BME280_pressure;Samples;Min_cycle;Max_cycle;Signal;HPM_P1;HPM_P2
2021/09/25 00:00:31;;;;;;;6.68;3.45;;;18.60;93.10;;;;;;5053090;28;20029;-90
2021/09/25 00:02:58;;;;;;;7.15;3.45;;;18.60;93.00;;;;;;5053000;28;20053;-90
2021/09/25 00:05:26;;;;;;;6.97;3.55;;;18.60;93.00;;;;;;5053233;28;20021;-90
2021/09/25 00:07:51;;;;;;;5.03;3.10;;;18.60;92.90;;;;;;5053087;28;20471;-91
2021/09/25 00:10:17;;;;;;;6.15;3.10;;;18.50;92.80;;;;;;5053007;28;20052;-91
2021/09/25 00:12:43;;;;;;;5.93;2.75;;;18.50;92.80;;;;;;5052960;28;20508;-90
2021/09/25 00:15:12;;;;;;;5.82;3.33;;;18.50;92.80;;;;;;5036579;28;20110;-90
2021/09/25 00:17:38;;;;;;;5.07;3.28;;;18.50;92.80;;;;;;5052882;28;20022;-91
2021/09/25 00:20:07;;;;;;;6.78;3.42;;;18.50;92.70;;;;;;5036728;28;20100;-91
2021/09/25 00:22:33;;;;;;;6.28;3.08;;;18.50;92.70;;;;;;5053078;28;20025;-90
2021/09/25 00:25:01;;;;;;;5.18;3.30;;;18.50;92.70;;;;;;5052948;28;20107;-90
2021/09/25 00:27:30;;;;;;;5.47;2.90;;;18.50;92.70;;;;;;5052823;28;20078;-90
2021/09/25 00:29:56;;;;;;;6.35;3.33;;;18.50;92.80;;;;;;5020406;28;20056;-89
2021/09/25 00:32:21;;;;;;;6.10;3.38;;;18.50;92.70;;;;;;5037284;28;20373;-89
2021/09/25 00:34:47;;;;;;;6.05;3.20;;;18.50;92.70;;;;;;5037032;28;20497;-89
2021/09/25 00:37:13;;;;;;;6.10;3.03;;;18.50;92.70;;;;;;5037033;28;20128;-90
2021/09/25 00:39:38;;;;;;;5.40;3.40;;;18.40;92.70;;;;;;5038586;28;20025;-89
2021/09/25 00:42:04;;;;;;;5.78;3.30;;;18.40;92.60;;;;;;5020272;28;20439;-89
2021/09/25 00:44:30;;;;;;;5.75;3.00;;;18.40;92.60;;;;;;5036745;28;20025;-89
2021/09/25 00:46:58;;;;;;;3.83;2.78;;;18.40;92.70;;;;;;5020443;28;20052;-90
2021/09/25 00:49:24;;;;;;;5.20;3.28;;;18.40;92.70;;;;;;5038686;28;20123;-90
2021/09/25 00:51:50;;;;;;;5.97;3.35;;;18.40;92.70;;;;;;5021361;28;20052;-89
2021/09/25 00:54:17;;;;;;;6.55;3.47;;;18.40;92.70;;;;;;5037504;28;20068;-89
2021/09/25 00:56:44;;;;;;;5.53;3.20;;;18.30;92.70;;;;;;5041214;28;20025;-89
2021/09/25 00:59:12;;;;;;;6.32;3.20;;;18.40;92.70;;;;;;5040986;28;20029;-89
2021/09/25 01:01:39;;;;;;;6.47;3.25;;;18.30;92.80;;;;;;5058245;28;20017;-90
2021/09/25 01:04:05;;;;;;;6.30;3.70;;;18.40;92.80;;;;;;5037572;28;20537;-89
2021/09/25 01:06:30;;;;;;;9.45;3.97;;;18.30;92.80;;;;;;5021434;28;20057;-90
2021/09/25 01:08:56;;;;;;;7.80;4.00;;;18.30;92.90;;;;;;5021137;28;20064;-89
2021/09/25 01:11:22;;;;;;;5.30;3.53;;;18.30;93.20;;;;;;5003718;28;20030;-89
2021/09/25 01:13:48;;;;;;;7.00;4.13;;;18.30;93.00;;;;;;5020618;28;20026;-90
2021/09/25 01:16:14;;;;;;;6.20;3.97;;;18.30;93.00;;;;;;5020402;28;20025;-89
2021/09/25 01:18:40;;;;;;;7.97;4.50;;;18.30;93.10;;;;;;5005607;28;20471;-89
2021/09/25 01:21:07;;;;;;;7.13;3.97;;;18.30;93.10;;;;;;5004036;28;20059;-89
2021/09/25 01:23:33;;;;;;;7.03;4.78;;;18.20;93.10;;;;;;5020929;28;20071;-89
2021/09/25 01:26:00;;;;;;;7.68;4.47;;;18.30;93.20;;;;;;5020668;28;20482;-89
2021/09/25 01:28:30;;;;;;;8.60;5.28;;;18.30;93.20;;;;;;5038976;28;20021;-89
2021/09/25 01:30:56;;;;;;;8.63;5.40;;;18.30;93.20;;;;;;5058118;28;20048;-89
2021/09/25 01:33:32;;;;;;;8.57;5.45;;;18.20;93.20;;;;;;5040831;28;20098;-89
2021/09/25 01:36:01;;;;;;;7.68;4.90;;;18.20;93.30;;;;;;5040262;28;20119;-89
2021/09/25 01:38:27;;;;;;;11.27;5.55;;;18.20;93.30;;;;;;5040266;28;20021;-89
2021/09/25 01:40:52;;;;;;;8.98;5.43;;;18.20;93.30;;;;;;5037420;28;20025;-89
2021/09/25 01:43:18;;;;;;;7.20;4.95;;;18.20;93.30;;;;;;5037857;28;20070;-84
2021/09/25 01:45:45;;;;;;;8.98;5.75;;;18.20;93.60;;;;;;5029049;28;20110;-84
2021/09/25 01:48:12;;;;;;;8.50;5.18;;;18.20;93.40;;;;;;5054199;28;20025;-85
2021/09/25 01:50:39;;;;;;;7.90;5.38;;;18.10;93.40;;;;;;5055936;28;20022;-90
2021/09/25 01:53:37;;;;;;;9.70;6.07;;;18.10;93.40;;;;;;5032060;28;20057;-89
2021/09/25 01:56:14;;;;;;;10.70;6.05;;;18.10;93.50;;;;;;5015588;28;20384;-90
2021/09/25 01:58:41;;;;;;;9.07;5.97;;;18.10;93.50;;;;;;5032259;28;20407;-89
2021/09/25 02:01:08;;;;;;;7.45;5.05;;;18.10;93.50;;;;;;5031961;28;20021;-89
2021/09/25 02:03:35;;;;;;;8.68;5.30;;;18.10;93.60;;;;;;4999396;28;20022;-89
2021/09/25 02:06:05;;;;;;;10.25;5.60;;;18.10;93.60;;;;;;4983080;28;20021;-90
2021/09/25 02:08:31;;;;;;;8.97;5.80;;;18.00;93.60;;;;;;5012396;28;20117;-90
2021/09/25 02:10:57;;;;;;;10.40;6.35;;;18.00;93.60;;;;;;5022944;28;20085;-89
2021/09/25 02:13:23;;;;;;;8.10;5.38;;;18.00;93.60;;;;;;4979787;28;20034;-89
2021/09/25 02:15:49;;;;;;;9.05;5.50;;;18.00;93.70;;;;;;4995953;28;20072;-90
2021/09/25 02:18:14;;;;;;;10.07;5.57;;;18.00;93.60;;;;;;4979623;28;20052;-89
2021/09/25 02:20:40;;;;;;;8.52;6.10;;;18.00;93.70;;;;;;4979595;28;20026;-89
2021/09/25 02:23:06;;;;;;;8.90;5.80;;;18.00;94.00;;;;;;4995549;28;20031;-84
2021/09/25 02:25:32;;;;;;;8.52;5.78;;;18.00;93.70;;;;;;5013944;28;20113;-84
2021/09/25 02:27:58;;;;;;;9.15;5.65;;;17.90;93.80;;;;;;5013805;28;20033;-84
2021/09/25 02:30:35;;;;;;;10.57;5.93;;;17.90;94.10;;;;;;5012642;28;20605;-84
2021/09/25 02:33:04;;;;;;;10.10;6.05;;;17.90;93.80;;;;;;5002956;28;20084;-84
2021/09/25 02:35:33;;;;;;;10.63;6.53;;;17.90;93.80;;;;;;4997206;28;20049;-84
2021/09/25 02:37:59;;;;;;;10.60;6.40;;;17.90;93.80;;;;;;4997998;28;20032;-85
2021/09/25 02:40:25;;;;;;;8.73;5.80;;;17.90;93.90;;;;;;5014985;28;20044;-85
2021/09/25 02:42:51;;;;;;;8.63;5.25;;;17.90;93.80;;;;;;5029951;28;20524;-84
2021/09/25 02:45:18;;;;;;;8.95;6.25;;;17.90;93.90;;;;;;5029674;28;20096;-84
2021/09/25 02:47:44;;;;;;;8.98;6.03;;;17.80;93.90;;;;;;5012370;28;20030;-85
2021/09/25 02:50:12;;;;;;;8.95;5.82;;;17.80;93.80;;;;;;5009846;28;20022;-84
2021/09/25 02:52:38;;;;;;;10.95;6.68;;;17.80;93.90;;;;;;5028637;28;20502;-85
2021/09/25 02:55:07;;;;;;;9.45;6.68;;;17.80;93.90;;;;;;5032053;28;20394;-84
2021/09/25 02:57:33;;;;;;;9.75;5.72;;;17.80;93.90;;;;;;5016250;28;20042;-84
2021/09/25 03:00:04;;;;;;;10.00;5.82;;;17.80;93.90;;;;;;5049974;28;20020;-84
2021/09/25 03:02:30;;;;;;;10.20;6.30;;;17.80;93.90;;;;;;5042185;28;20036;-84
2021/09/25 03:04:55;;;;;;;9.40;5.68;;;17.80;93.80;;;;;;5052529;28;20013;-84
2021/09/25 03:07:21;;;;;;;8.10;6.03;;;17.80;93.90;;;;;;5048939;28;20025;-84
2021/09/25 03:09:49;;;;;;;11.82;7.20;;;17.80;93.90;;;;;;5023011;28;20030;-84
2021/09/25 03:12:15;;;;;;;10.43;6.80;;;17.80;93.90;;;;;;5030133;28;20025;-84
2021/09/25 03:14:49;;;;;;;10.35;6.82;;;17.80;93.80;;;;;;5043930;28;20112;-84
2021/09/25 03:17:15;;;;;;;10.88;6.72;;;17.80;93.80;;;;;;5052298;28;20108;-84
2021/09/25 03:19:42;;;;;;;10.43;6.60;;;17.80;93.80;;;;;;5040490;28;20129;-84
2021/09/25 03:22:08;;;;;;;8.93;6.20;;;17.80;93.80;;;;;;5033488;28;20033;-84
2021/09/25 03:24:34;;;;;;;11.07;7.32;;;17.80;93.80;;;;;;5027386;28;20493;-84
2021/09/25 03:27:00;;;;;;;10.48;6.40;;;17.70;93.80;;;;;;5030186;28;20218;-84
2021/09/25 03:29:26;;;;;;;10.10;7.07;;;17.70;93.80;;;;;;5040803;28;20025;-84
2021/09/25 03:31:52;;;;;;;9.98;6.07;;;17.70;93.90;;;;;;5032663;28;20509;-84
2021/09/25 03:34:17;;;;;;;9.50;6.50;;;17.70;94.20;;;;;;5053093;28;20081;-84
2021/09/25 03:36:43;;;;;;;10.15;6.63;;;17.70;93.90;;;;;;5036754;28;20067;-84
2021/09/25 03:42:34;;;;;;;9.68;7.13;;;17.70;94.00;;;;;;5036729;28;20108;-89
2021/09/25 03:45:00;;;;;;;11.32;7.00;;;17.70;94.00;;;;;;5052917;28;20022;-89
2021/09/25 03:47:26;;;;;;;13.13;7.20;;;17.60;94.00;;;;;;5035528;28;20037;-89
2021/09/25 03:49:52;;;;;;;12.40;7.30;;;17.60;94.00;;;;;;5051934;28;20029;-89
2021/09/25 03:52:17;;;;;;;11.52;7.45;;;17.60;94.00;;;;;;5051831;28;20049;-89
2021/09/25 03:54:43;;;;;;;9.05;6.22;;;17.60;94.10;;;;;;5035024;28;20471;-89
2021/09/25 03:57:09;;;;;;;10.40;6.65;;;17.60;94.10;;;;;;5034160;28;20022;-88
2021/09/25 03:59:35;;;;;;;11.30;7.70;;;17.60;94.10;;;;;;5034680;28;20029;-89
2021/09/25 04:02:00;;;;;;;12.10;6.95;;;17.60;94.10;;;;;;5020679;28;20474;-88
2021/09/25 04:04:26;;;;;;;11.40;7.00;;;17.60;94.10;;;;;;5050853;28;20018;-89
2021/09/25 04:06:52;;;;;;;10.50;6.88;;;17.60;94.20;;;;;;5018847;28;20419;-88
2021/09/25 04:09:17;;;;;;;9.68;6.75;;;17.60;94.20;;;;;;5033429;28;20355;-88
2021/09/25 04:11:48;;;;;;;11.13;6.57;;;17.60;94.20;;;;;;5016862;28;20025;-89
2021/09/25 04:14:16;;;;;;;10.85;7.72;;;17.50;94.40;;;;;;5003076;28;20112;-89
2021/09/25 04:16:41;;;;;;;12.65;7.93;;;17.50;94.20;;;;;;5023936;28;20064;-89
2021/09/25 04:19:07;;;;;;;12.02;7.57;;;17.50;94.20;;;;;;5023233;28;20029;-88
2021/09/25 04:21:33;;;;;;;10.35;6.80;;;17.50;94.20;;;;;;5005673;28;20033;-88
2021/09/25 04:23:58;;;;;;;10.32;7.07;;;17.50;94.20;;;;;;5055204;28;20017;-88
2021/09/25 04:26:24;;;;;;;10.30;6.70;;;17.50;94.20;;;;;;5023739;28;20025;-89
2021/09/25 04:28:50;;;;;;;10.57;7.55;;;17.50;94.20;;;;;;5020169;28;20128;-88
2021/09/25 04:31:15;;;;;;;12.70;7.10;;;17.50;94.30;;;;;;5042076;28;20036;-89
2021/09/25 04:33:41;;;;;;;10.02;7.28;;;17.50;94.20;;;;;;5059091;28;20025;-89
2021/09/25 04:36:07;;;;;;;12.98;7.68;;;17.50;94.20;;;;;;5025509;28;20021;-89
2021/09/25 04:38:33;;;;;;;11.30;6.88;;;17.50;94.20;;;;;;5058277;28;20059;-89
2021/09/25 04:40:59;;;;;;;14.57;7.82;;;17.50;94.20;;;;;;5042872;28;20033;-88
2021/09/25 04:43:24;;;;;;;13.65;7.88;;;17.50;94.20;;;;;;5019576;28;20112;-89
2021/09/25 04:45:50;;;;;;;9.10;6.75;;;17.50;94.30;;;;;;5010045;28;20043;-89
2021/09/25 04:51:38;;;;;;;12.05;7.75;;;17.40;94.30;;;;;;5060162;28;20108;-89
2021/09/25 04:54:06;;;;;;;10.27;6.55;;;17.40;94.40;;;;;;5049038;28;20049;-89
2021/09/25 04:56:32;;;;;;;12.88;7.72;;;17.40;94.40;;;;;;5026287;28;20111;-89
2021/09/25 04:58:58;;;;;;;13.00;8.00;;;17.40;94.30;;;;;;5024519;28;20048;-89
2021/09/25 05:01:24;;;;;;;11.43;6.63;;;17.40;94.40;;;;;;5023712;28;20438;-89
2021/09/25 05:03:50;;;;;;;9.50;6.53;;;17.40;94.40;;;;;;5030472;28;20087;-89
2021/09/25 05:06:16;;;;;;;10.00;6.80;;;17.40;94.40;;;;;;5042518;28;20021;-89
2021/09/25 05:08:42;;;;;;;9.23;6.70;;;17.40;94.40;;;;;;5040205;28;20036;-89
2021/09/25 05:11:08;;;;;;;12.45;7.50;;;17.40;94.40;;;;;;5024761;28;20064;-89
2021/09/25 05:13:33;;;;;;;10.63;6.15;;;17.40;94.50;;;;;;5040936;28;20386;-89
2021/09/25 05:15:59;;;;;;;9.48;6.22;;;17.40;94.60;;;;;;5040970;28;20033;-89
2021/09/25 05:18:25;;;;;;;10.00;6.68;;;17.30;94.80;;;;;;5040179;28;20079;-89
2021/09/25 05:20:52;;;;;;;11.52;6.95;;;17.30;94.50;;;;;;5058227;28;20116;-89
2021/09/25 05:23:18;;;;;;;9.65;6.80;;;17.30;94.50;;;;;;5042323;28;20497;-89
2021/09/25 05:25:44;;;;;;;9.18;6.22;;;17.30;94.50;;;;;;5041945;28;20116;-88
2021/09/25 05:28:10;;;;;;;10.90;6.72;;;17.30;94.50;;;;;;5024640;28;20060;-88
2021/09/25 05:30:39;;;;;;;11.93;7.05;;;17.30;94.50;;;;;;5021813;28;20025;-89
2021/09/25 05:33:08;;;;;;;9.95;6.40;;;17.20;94.60;;;;;;5037385;28;20049;-89
2021/09/25 05:35:34;;;;;;;11.10;6.95;;;17.30;94.50;;;;;;5005485;28;20083;-88
2021/09/25 05:38:00;;;;;;;12.13;6.85;;;17.30;94.60;;;;;;5005597;28;20021;-89
2021/09/25 05:40:26;;;;;;;9.90;6.65;;;17.30;94.60;;;;;;5036605;28;20026;-89
2021/09/25 05:42:52;;;;;;;12.48;6.82;;;17.30;94.60;;;;;;5003351;28;20022;-88
2021/09/25 05:45:18;;;;;;;9.85;6.78;;;17.30;94.60;;;;;;5007873;28;20029;-89
2021/09/25 05:47:44;;;;;;;9.07;6.20;;;17.30;94.70;;;;;;5022881;28;20128;-89
2021/09/25 05:50:11;;;;;;;8.35;6.55;;;17.30;94.70;;;;;;5040297;28;20035;-89
2021/09/25 05:52:37;;;;;;;9.68;5.93;;;17.30;94.60;;;;;;5025270;23;20050;-89
2021/09/25 05:55:04;;;;;;;10.68;6.07;;;17.30;94.60;;;;;;4985947;28;20028;-89
2021/09/25 05:57:29;;;;;;;11.85;6.30;;;17.30;94.60;;;;;;4997769;28;20030;-88
2021/09/25 05:59:55;;;;;;;10.13;6.63;;;17.30;94.60;;;;;;4997925;28;20375;-89
2021/09/25 06:02:20;;;;;;;10.13;6.40;;;17.30;94.70;;;;;;4998356;28;20475;-89
2021/09/25 06:04:46;;;;;;;8.75;6.43;;;17.30;94.70;;;;;;4965592;28;20033;-88
2021/09/25 06:07:13;;;;;;;8.35;5.50;;;17.30;94.70;;;;;;5004208;28;20033;-89
2021/09/25 06:09:41;;;;;;;9.32;5.97;;;17.30;94.70;;;;;;4968590;28;20038;-89
2021/09/25 06:12:07;;;;;;;8.63;6.10;;;17.30;94.70;;;;;;4997805;28;20479;-90
2021/09/25 06:14:33;;;;;;;8.32;6.07;;;17.30;94.70;;;;;;4984317;28;20554;-88
2021/09/25 06:16:59;;;;;;;8.95;5.82;;;17.30;94.70;;;;;;5015898;28;20050;-88
2021/09/25 06:19:25;;;;;;;10.02;6.32;;;17.30;94.70;;;;;;5015090;28;20450;-89
2021/09/25 06:21:50;;;;;;;9.48;5.85;;;17.30;94.70;;;;;;4998630;28;20479;-88
2021/09/25 06:24:16;;;;;;;11.82;6.85;;;17.30;94.70;;;;;;4998956;28;20033;-89
2021/09/25 06:26:42;;;;;;;9.02;6.07;;;17.30;94.70;;;;;;4997297;28;20022;-88
2021/09/25 06:29:07;;;;;;;7.45;5.65;;;17.30;94.80;;;;;;4963101;28;20037;-89
2021/09/25 06:31:38;;;;;;;8.93;6.10;;;17.30;94.80;;;;;;4947331;28;20031;-88
2021/09/25 06:34:04;;;;;;;9.63;6.50;;;17.30;94.80;;;;;;4995249;28;20117;-89
2021/09/25 06:36:32;;;;;;;10.23;5.85;;;17.30;94.80;;;;;;4979376;28;20484;-88
2021/09/25 06:38:59;;;;;;;8.90;6.05;;;17.30;94.80;;;;;;4963883;28;20480;-89
2021/09/25 06:41:25;;;;;;;9.10;5.90;;;17.30;94.90;;;;;;4965374;28;20030;-89
2021/09/25 06:43:51;;;;;;;7.90;6.15;;;17.30;94.90;;;;;;4964857;28;20026;-89
2021/09/25 06:46:16;;;;;;;10.00;6.10;;;17.40;94.90;;;;;;4996086;28;20026;-89
2021/09/25 06:48:43;;;;;;;8.82;6.18;;;17.40;94.90;;;;;;4964489;28;20541;-89
2021/09/25 06:51:08;;;;;;;11.85;6.95;;;17.40;94.90;;;;;;4980353;28;20026;-89
2021/09/25 06:53:34;;;;;;;10.30;6.72;;;17.40;94.90;;;;;;4981061;28;20057;-89
2021/09/25 06:59:21;;;;;;;9.23;6.43;;;17.40;94.90;;;;;;5000470;28;20041;-89
2021/09/25 07:01:47;;;;;;;9.90;7.03;;;17.40;94.90;;;;;;4948033;28;20031;-89
2021/09/25 07:04:13;;;;;;;11.35;6.88;;;17.40;94.90;;;;;;4964151;28;20027;-89
2021/09/25 07:06:40;;;;;;;11.35;7.00;;;17.40;95.00;;;;;;4947800;28;20109;-89
2021/09/25 07:09:07;;;;;;;13.45;7.78;;;17.40;95.00;;;;;;4965003;28;20031;-89
2021/09/25 07:11:33;;;;;;;9.30;6.35;;;17.40;95.10;;;;;;4995163;28;20023;-90
2021/09/25 07:13:59;;;;;;;10.05;6.97;;;17.40;95.10;;;;;;4995933;28;20026;-90
2021/09/25 07:16:24;;;;;;;9.15;7.13;;;17.40;95.10;;;;;;4947339;28;20037;-89
2021/09/25 07:18:50;;;;;;;12.90;7.57;;;17.40;95.10;;;;;;4995158;28;20468;-88
2021/09/25 07:21:19;;;;;;;12.30;7.47;;;17.40;95.10;;;;;;4962734;28;20539;-88
2021/09/25 07:23:45;;;;;;;10.77;7.50;;;17.40;95.10;;;;;;4946450;28;20034;-87
2021/09/25 07:26:10;;;;;;;11.25;7.35;;;17.40;95.10;;;;;;4978892;28;20031;-88
2021/09/25 07:28:36;;;;;;;9.90;6.60;;;17.40;95.10;;;;;;4995474;28;20117;-89
2021/09/25 07:31:05;;;;;;;12.68;7.13;;;17.40;95.20;;;;;;4978781;28;20484;-89
2021/09/25 07:33:30;;;;;;;9.55;6.45;;;17.40;95.20;;;;;;4994963;28;20113;-89
2021/09/25 07:35:56;;;;;;;12.75;7.80;;;17.50;95.20;;;;;;4962141;28;20066;-89
2021/09/25 07:38:22;;;;;;;12.32;7.88;;;17.50;95.30;;;;;;4988743;28;20029;-89
2021/09/25 07:40:52;;;;;;;12.68;8.07;;;17.50;95.20;;;;;;5014109;28;20024;-90
2021/09/25 07:43:18;;;;;;;10.85;8.18;;;17.50;95.20;;;;;;5013671;28;20498;-90
2021/09/25 07:45:44;;;;;;;14.25;8.93;;;17.50;95.20;;;;;;5013494;28;20025;-89
2021/09/25 07:48:09;;;;;;;11.50;7.82;;;17.50;95.20;;;;;;4981042;28;20041;-89
2021/09/25 07:50:35;;;;;;;14.68;8.73;;;17.50;95.20;;;;;;4997623;28;20038;-89
2021/09/25 07:53:01;;;;;;;13.13;8.15;;;17.50;95.20;;;;;;5013420;28;20057;-89
2021/09/25 07:55:30;;;;;;;12.70;7.65;;;17.50;95.20;;;;;;4980991;28;20499;-89
2021/09/25 07:57:56;;;;;;;12.32;7.68;;;17.50;95.20;;;;;;4981281;28;20475;-89
2021/09/25 08:00:22;;;;;;;13.32;8.45;;;17.50;95.30;;;;;;4981020;28;20018;-88
2021/09/25 08:02:49;;;;;;;12.65;7.88;;;17.50;95.30;;;;;;4997193;28;20472;-88
2021/09/25 08:05:15;;;;;;;12.82;7.63;;;17.50;95.30;;;;;;5019405;28;20018;-88
2021/09/25 08:07:40;;;;;;;10.13;7.55;;;17.60;95.30;;;;;;5027228;28;20516;-88
2021/09/25 08:10:08;;;;;;;12.10;7.32;;;17.60;95.30;;;;;;4996623;28;20037;-88
2021/09/25 08:12:34;;;;;;;11.65;7.32;;;17.60;95.30;;;;;;5035555;28;20106;-88
2021/09/25 08:15:01;;;;;;;10.82;6.72;;;17.60;95.30;;;;;;5022053;28;20026;-88
2021/09/25 08:17:27;;;;;;;12.05;7.55;;;17.70;95.30;;;;;;5008237;28;20034;-88
2021/09/25 08:19:53;;;;;;;12.57;8.02;;;17.70;95.30;;;;;;5008550;28;20473;-88
2021/09/25 08:22:18;;;;;;;11.98;7.80;;;17.70;95.30;;;;;;5008140;28;20033;-88
2021/09/25 08:24:44;;;;;;;11.95;7.80;;;17.70;95.30;;;;;;5012775;28;20517;-88
2021/09/25 08:27:13;;;;;;;12.00;8.05;;;17.70;95.30;;;;;;5021351;28;20153;-88
2021/09/25 08:29:39;;;;;;;14.32;9.57;;;17.70;95.30;;;;;;4999382;28;20042;-89
2021/09/25 08:32:06;;;;;;;13.20;9.32;;;17.70;95.30;;;;;;5006416;28;20105;-88
2021/09/25 08:34:32;;;;;;;13.82;8.98;;;17.70;95.40;;;;;;5014756;28;20490;-88
2021/09/25 08:36:58;;;;;;;12.93;7.60;;;17.80;95.40;;;;;;5006653;28;20029;-88
2021/09/25 08:39:24;;;;;;;12.65;8.30;;;17.80;95.30;;;;;;5014908;28;20547;-89
2021/09/25 08:41:52;;;;;;;11.95;8.43;;;17.80;95.30;;;;;;5008592;28;20110;-89
2021/09/25 08:44:18;;;;;;;12.52;9.20;;;17.80;95.30;;;;;;4992851;28;20515;-89
2021/09/25 08:46:44;;;;;;;12.10;8.68;;;17.80;95.30;;;;;;5024390;28;20022;-88
2021/09/25 08:49:10;;;;;;;12.23;8.95;;;17.80;95.40;;;;;;5014018;28;20487;-88
2021/09/25 08:51:36;;;;;;;14.18;9.40;;;17.80;95.40;;;;;;4993226;28;20054;-88
2021/09/25 08:54:03;;;;;;;12.00;8.38;;;17.80;95.30;;;;;;5027029;28;20058;-88
2021/09/25 08:56:32;;;;;;;12.93;9.00;;;17.80;95.30;;;;;;5042320;28;20025;-88
2021/09/25 08:59:05;;;;;;;12.75;8.57;;;17.80;95.30;;;;;;5057289;28;20037;-88
2021/09/25 09:01:42;;;;;;;12.35;8.93;;;17.90;95.40;;;;;;5023546;28;20114;-88
2021/09/25 09:04:11;;;;;;;14.38;9.15;;;17.90;95.40;;;;;;5020533;28;20027;-88
2021/09/25 09:06:38;;;;;;;15.48;9.18;;;17.90;95.30;;;;;;5011377;28;20076;-88
2021/09/25 09:09:08;;;;;;;13.68;9.55;;;17.90;95.30;;;;;;5015939;28;20038;-88
2021/09/25 09:11:39;;;;;;;14.23;8.80;;;17.90;95.30;;;;;;5010095;28;20030;-88
2021/09/25 09:14:05;;;;;;;16.77;10.13;;;17.90;95.30;;;;;;5011319;28;20041;-89
2021/09/25 09:16:31;;;;;;;15.85;9.38;;;17.90;95.30;;;;;;5002341;28;20033;-88
2021/09/25 09:18:59;;;;;;;13.75;10.05;;;17.90;95.30;;;;;;5006110;28;20030;-88
2021/09/25 09:21:27;;;;;;;16.35;9.82;;;17.90;95.30;;;;;;5018808;28;20032;-88
2021/09/25 09:24:01;;;;;;;14.07;9.10;;;17.90;95.30;;;;;;5020111;28;20029;-88
2021/09/25 09:26:33;;;;;;;13.73;8.65;;;17.90;95.30;;;;;;5018519;28;20022;-88
2021/09/25 09:29:00;;;;;;;15.43;9.60;;;17.90;95.30;;;;;;5013843;28;20089;-88
2021/09/25 09:31:26;;;;;;;14.25;9.45;;;18.00;95.50;;;;;;5015044;28;20089;-89
2021/09/25 09:33:55;;;;;;;12.75;8.88;;;18.00;95.50;;;;;;5026807;28;20026;-89
2021/09/25 09:36:35;;;;;;;13.10;9.38;;;18.00;95.50;;;;;;5027128;28;20373;-89
2021/09/25 09:39:18;;;;;;;16.23;9.98;;;18.00;95.50;;;;;;4998587;28;20093;-90
2021/09/25 09:41:58;;;;;;;15.85;10.02;;;18.00;95.50;;;;;;5010040;28;20061;-90
2021/09/25 09:44:32;;;;;;;13.60;8.80;;;18.10;95.50;;;;;;4993003;28;20092;-88
2021/09/25 09:47:01;;;;;;;13.70;8.68;;;18.10;95.40;;;;;;5010591;28;20025;-89
2021/09/25 09:49:33;;;;;;;12.93;9.10;;;18.10;95.40;;;;;;5011587;28;20022;-89
2021/09/25 09:52:18;;;;;;;14.63;9.70;;;18.10;95.40;;;;;;5005990;28;20051;-90
2021/09/25 09:54:46;;;;;;;14.35;9.55;;;18.20;95.60;;;;;;4986154;28;20033;-89
2021/09/25 09:57:18;;;;;;;14.93;10.10;;;18.20;95.50;;;;;;4987663;28;20030;-84
2021/09/25 09:59:46;;;;;;;17.15;11.13;;;18.20;95.50;;;;;;4993041;28;20069;-84
2021/09/25 10:02:12;;;;;;;13.10;9.60;;;18.20;95.50;;;;;;4993355;28;20030;-84
2021/09/25 10:04:39;;;;;;;12.10;8.88;;;18.20;95.40;;;;;;4991483;28;20126;-84
2021/09/25 10:07:05;;;;;;;12.85;9.52;;;18.20;95.40;;;;;;5011734;28;20542;-84
2021/09/25 10:09:33;;;;;;;16.75;9.20;;;18.30;95.50;;;;;;5001069;28;20022;-84
2021/09/25 10:12:05;;;;;;;12.88;9.23;;;18.30;95.40;;;;;;5003000;28;20027;-85
2021/09/25 10:14:33;;;;;;;14.70;9.65;;;18.30;95.50;;;;;;5021077;28;20415;-84
2021/09/25 10:17:02;;;;;;;15.50;10.38;;;18.30;95.50;;;;;;5006566;28;20541;-85
2021/09/25 10:19:31;;;;;;;13.45;9.20;;;18.40;95.50;;;;;;5022084;28;20034;-84
2021/09/25 10:22:09;;;;;;;15.80;11.00;;;18.40;95.60;;;;;;5006960;28;20036;-86
2021/09/25 10:24:39;;;;;;;14.57;10.45;;;18.40;95.50;;;;;;4999091;28;20507;-87
2021/09/25 10:27:07;;;;;;;14.52;10.40;;;18.40;95.50;;;;;;5002138;28;20031;-85
2021/09/25 10:29:33;;;;;;;15.70;10.55;;;18.40;95.50;;;;;;4981668;28;20125;-85
2021/09/25 10:32:26;;;;;;;15.48;10.70;;;18.30;95.50;;;;;;5003036;28;20088;-84
2021/09/25 10:35:02;;;;;;;14.68;10.10;;;18.40;95.40;;;;;;4992152;28;20486;-85
2021/09/25 10:37:55;;;;;;;14.77;10.48;;;18.40;95.50;;;;;;4989360;28;20026;-84
2021/09/25 10:40:27;;;;;;;19.92;11.93;;;18.40;95.50;;;;;;4969924;28;20449;-85
2021/09/25 10:43:21;;;;;;;18.77;11.43;;;18.50;95.50;;;;;;5008962;28;20015;-84
2021/09/25 10:45:52;;;;;;;18.02;11.35;;;18.50;95.50;;;;;;4999487;28;20133;-85
2021/09/25 10:48:26;;;;;;;16.13;11.30;;;18.50;95.40;;;;;;4984051;28;20472;-86
2021/09/25 10:50:57;;;;;;;16.27;11.20;;;18.50;95.40;;;;;;4992371;28;20057;-85
2021/09/25 10:53:29;;;;;;;18.42;12.07;;;18.50;95.40;;;;;;5009196;28;20046;-89
2021/09/25 10:55:57;;;;;;;19.00;12.43;;;18.50;95.30;;;;;;4995835;28;20034;-88
2021/09/25 10:58:23;;;;;;;17.58;11.48;;;18.50;95.40;;;;;;5003256;28;20045;-89
2021/09/25 11:01:09;;;;;;;19.17;12.68;;;18.60;95.40;;;;;;4993737;28;20088;-89
2021/09/25 11:03:45;;;;;;;15.63;11.07;;;18.60;95.40;;;;;;4986000;28;20022;-87
2021/09/25 11:06:42;;;;;;;16.30;11.18;;;18.60;95.40;;;;;;5004943;28;20425;-88
2021/09/25 11:09:09;;;;;;;18.27;11.65;;;18.60;95.30;;;;;;4991099;28;20429;-88
2021/09/25 11:11:35;;;;;;;23.20;13.48;;;18.60;95.30;;;;;;5005343;28;20371;-88
2021/09/25 11:14:00;;;;;;;21.50;13.70;;;18.70;95.30;;;;;;5020308;28;20041;-88
2021/09/25 11:17:01;;;;;;;20.35;13.32;;;18.70;95.20;;;;;;5016571;28;20029;-88
2021/09/25 11:19:28;;;;;;;19.08;14.13;;;18.70;95.30;;;;;;4999315;28;20160;-90
2021/09/25 11:22:01;;;;;;;23.05;14.60;;;18.80;95.20;;;;;;5017412;28;20102;-91
2021/09/25 11:24:30;;;;;;;20.50;14.68;;;18.80;95.20;;;;;;4996250;28;20010;-91
2021/09/25 11:26:56;;;;;;;16.77;12.70;;;18.80;95.20;;;;;;5021772;28;20080;-90
2021/09/25 11:29:22;;;;;;;16.13;11.68;;;18.80;95.20;;;;;;4980881;28;20026;-91
2021/09/25 11:31:50;;;;;;;16.05;11.50;;;18.80;95.20;;;;;;5017882;28;20030;-89
2021/09/25 11:34:28;;;;;;;14.95;11.80;;;18.90;95.30;;;;;;4995176;28;20444;-90
2021/09/25 11:36:56;;;;;;;21.08;13.10;;;18.90;95.20;;;;;;4992202;28;20038;-91
2021/09/25 11:39:22;;;;;;;18.17;12.90;;;18.90;95.10;;;;;;4992002;28;20168;-91
2021/09/25 11:42:08;;;;;;;18.73;13.02;;;18.90;95.20;;;;;;4992399;28;20380;-91
2021/09/25 11:44:54;;;;;;;18.33;12.98;;;19.00;95.10;;;;;;4968904;28;20031;-91
2021/09/25 11:47:41;;;;;;;19.02;12.55;;;19.00;95.10;;;;;;4973759;28;20046;-91
2021/09/25 11:50:13;;;;;;;18.38;12.25;;;19.10;95.20;;;;;;4989707;28;20468;-90
2021/09/25 11:52:40;;;;;;;16.45;11.27;;;19.00;95.20;;;;;;5025671;23;20049;-89
2021/09/25 11:55:07;;;;;;;19.33;12.45;;;19.10;95.20;;;;;;5016956;28;20018;-90
2021/09/25 11:57:33;;;;;;;18.42;12.90;;;19.10;95.10;;;;;;4998487;28;20033;-87
2021/09/25 11:59:59;;;;;;;21.88;13.93;;;19.10;95.20;;;;;;5014765;28;20021;-89
2021/09/25 12:02:36;;;;;;;18.38;12.93;;;19.10;95.10;;;;;;5004119;28;20108;-89
2021/09/25 12:05:02;;;;;;;19.25;12.57;;;19.20;95.00;;;;;;5032381;28;20066;-91
2021/09/25 12:07:41;;;;;;;17.73;12.10;;;19.20;95.00;;;;;;5013379;28;20022;-89
2021/09/25 12:10:14;;;;;;;15.60;11.55;;;19.20;95.00;;;;;;5029282;28;20022;-90
2021/09/25 12:12:40;;;;;;;16.45;11.63;;;19.20;95.00;;;;;;5031124;28;20624;-89
2021/09/25 12:15:08;;;;;;;21.42;13.75;;;19.30;95.30;;;;;;4982095;28;20025;-86
2021/09/25 12:17:34;;;;;;;24.67;13.88;;;19.30;94.90;;;;;;5014295;28;20041;-88
2021/09/25 12:20:20;;;;;;;17.50;12.98;;;19.30;94.90;;;;;;5012764;28;20494;-87
2021/09/25 12:22:46;;;;;;;21.88;13.63;;;19.30;94.80;;;;;;5014341;28;20462;-88
2021/09/25 12:25:13;;;;;;;18.40;13.77;;;19.40;94.90;;;;;;5013950;28;20021;-88
2021/09/25 12:27:42;;;;;;;16.27;12.43;;;19.40;94.80;;;;;;5030646;28;20033;-88
2021/09/25 12:30:10;;;;;;;16.35;11.90;;;19.40;94.80;;;;;;5013160;28;20025;-88
2021/09/25 12:32:36;;;;;;;20.23;13.07;;;19.40;94.80;;;;;;5010695;28;20036;-89
2021/09/25 12:35:02;;;;;;;21.05;13.85;;;19.50;94.90;;;;;;5011607;28;20053;-88
2021/09/25 12:37:28;;;;;;;17.45;12.30;;;19.50;94.80;;;;;;5006737;28;20136;-88
2021/09/25 12:39:54;;;;;;;16.95;12.43;;;19.60;94.80;;;;;;4978474;28;20108;-88
2021/09/25 12:42:25;;;;;;;17.35;12.57;;;19.60;94.80;;;;;;4977238;28;20387;-88
2021/09/25 12:44:55;;;;;;;;;;;19.60;94.70;;;;;;5002787;28;20034;-88
2021/09/25 12:47:34;;;;;;;18.02;12.90;;;19.60;94.60;;;;;;5011009;28;19915;-86
2021/09/25 12:50:19;;;;;;;19.08;11.60;;;19.60;94.50;;;;;;5011154;28;20102;-87
2021/09/25 12:52:58;;;;;;;16.02;12.13;;;19.70;94.60;;;;;;5022116;28;20057;-91